sensor_id;sensor_type;location;lat;lon;timestamp;temperature;humidity
46041;DHT22;31779;49.124;19.190;2022-10-13T00:01:18;3.90;99.90
46041;DHT22;31779;49.124;19.190;2022-10-13T00:03:46;3.90;99.90
46041;DHT22;31779;49.124;19.190;2022-10-13T00:06:21;3.80;99.90
46041;DHT22;31779;49.124;19.190;2022-10-13T00:08:49;3.80;99.90
46041;DHT22;31779;49.124;19.190;2022-10-13T00:11:21;3.60;99.90
46041;DHT22;31779;49.124;19.190;2022-10-13T00:13:50;3.60;99.90
46041;DHT22;31779;49.124;19.190;2022-10-13T00:16:20;3.60;99.90
46041;DHT22;31779;49.124;19.190;2022-10-13T00:18:48;3.50;99.90
46041;DHT22;31779;49.124;19.190;2022-10-13T00:21:20;3.50;99.90
46041;DHT22;31779;49.124;19.190;2022-10-13T00:23:49;3.50;99.90
46041;DHT22;31779;49.124;19.190;2022-10-13T00:26:20;3.50;99.90
46041;DHT22;31779;49.124;19.190;2022-10-13T00:28:49;3.50;99.90
46041;DHT22;31779;49.124;19.190;2022-10-13T00:31:20;3.50;99.90
46041;DHT22;31779;49.124;19.190;2022-10-13T00:33:48;3.50;99.90
46041;DHT22;31779;49.124;19.190;2022-10-13T00:36:19;3.50;99.90
46041;DHT22;31779;49.124;19.190;2022-10-13T00:38:47;3.50;99.90
46041;DHT22;31779;49.124;19.190;2022-10-13T00:41:15;3.40;99.90
46041;DHT22;31779;49.124;19.190;2022-10-13T00:46:15;3.30;99.90
46041;DHT22;31779;49.124;19.190;2022-10-13T00:48:45;3.30;99.90
46041;DHT22;31779;49.124;19.190;2022-10-13T00:51:16;3.20;99.90
46041;DHT22;31779;49.124;19.190;2022-10-13T00:53:46;3.10;99.90
46041;DHT22;31779;49.124;19.190;2022-10-13T00:56:17;3.10;99.90
46041;DHT22;31779;49.124;19.190;2022-10-13T00:58:46;3.10;99.90
46041;DHT22;31779;49.124;19.190;2022-10-13T01:01:14;3.10;99.90
46041;DHT22;31779;49.124;19.190;2022-10-13T01:03:42;3.20;99.90
46041;DHT22;31779;49.124;19.190;2022-10-13T01:06:10;3.20;99.90
46041;DHT22;31779;49.124;19.190;2022-10-13T01:08:39;3.20;99.90
46041;DHT22;31779;49.124;19.190;2022-10-13T01:11:37;3.30;99.90
46041;DHT22;31779;49.124;19.190;2022-10-13T01:14:46;3.40;99.90
46041;DHT22;31779;49.124;19.190;2022-10-13T01:21:17;3.60;99.90
46041;DHT22;31779;49.124;19.190;2022-10-13T01:37:32;3.90;99.90
46041;DHT22;31779;49.124;19.190;2022-10-13T01:40:03;4.00;99.90
46041;DHT22;31779;49.124;19.190;2022-10-13T01:45:16;4.20;99.90
46041;DHT22;31779;49.124;19.190;2022-10-13T01:47:46;4.30;99.90
46041;DHT22;31779;49.124;19.190;2022-10-13T01:50:16;4.30;99.90
46041;DHT22;31779;49.124;19.190;2022-10-13T01:52:46;4.40;99.90
46041;DHT22;31779;49.124;19.190;2022-10-13T01:55:14;4.40;99.90
46041;DHT22;31779;49.124;19.190;2022-10-13T01:57:44;4.40;99.90
46041;DHT22;31779;49.124;19.190;2022-10-13T02:00:15;4.50;99.90
46041;DHT22;31779;49.124;19.190;2022-10-13T02:08:30;4.50;99.90
46041;DHT22;31779;49.124;19.190;2022-10-13T02:11:15;4.60;99.90
46041;DHT22;31779;49.124;19.190;2022-10-13T02:16:21;4.80;99.90
46041;DHT22;31779;49.124;19.190;2022-10-13T02:18:50;4.80;99.90
46041;DHT22;31779;49.124;19.190;2022-10-13T02:21:18;4.90;99.90
46041;DHT22;31779;49.124;19.190;2022-10-13T02:23:46;4.90;99.90
46041;DHT22;31779;49.124;19.190;2022-10-13T02:26:17;4.80;99.90
46041;DHT22;31779;49.124;19.190;2022-10-13T02:28:45;4.70;99.90
46041;DHT22;31779;49.124;19.190;2022-10-13T02:31:13;4.60;99.90
46041;DHT22;31779;49.124;19.190;2022-10-13T02:33:41;4.70;99.90
46041;DHT22;31779;49.124;19.190;2022-10-13T02:36:08;4.60;99.90
46041;DHT22;31779;49.124;19.190;2022-10-13T02:38:39;4.40;99.90
46041;DHT22;31779;49.124;19.190;2022-10-13T02:41:09;4.40;99.90
46041;DHT22;31779;49.124;19.190;2022-10-13T02:43:37;4.50;99.90
46041;DHT22;31779;49.124;19.190;2022-10-13T02:46:05;4.50;99.90
46041;DHT22;31779;49.124;19.190;2022-10-13T02:48:33;4.50;99.90
46041;DHT22;31779;49.124;19.190;2022-10-13T02:51:00;4.60;99.90
46041;DHT22;31779;49.124;19.190;2022-10-13T02:53:28;4.60;99.90
46041;DHT22;31779;49.124;19.190;2022-10-13T02:55:56;4.70;99.90
46041;DHT22;31779;49.124;19.190;2022-10-13T02:58:24;4.70;99.90
46041;DHT22;31779;49.124;19.190;2022-10-13T03:00:52;4.80;99.90
46041;DHT22;31779;49.124;19.190;2022-10-13T03:03:19;4.80;99.90
46041;DHT22;31779;49.124;19.190;2022-10-13T03:05:48;4.80;99.90
46041;DHT22;31779;49.124;19.190;2022-10-13T03:08:20;4.70;99.90
46041;DHT22;31779;49.124;19.190;2022-10-13T03:10:48;4.70;99.90
46041;DHT22;31779;49.124;19.190;2022-10-13T03:13:15;4.70;99.90
46041;DHT22;31779;49.124;19.190;2022-10-13T03:15:43;4.70;99.90
46041;DHT22;31779;49.124;19.190;2022-10-13T03:18:11;4.70;99.90
46041;DHT22;31779;49.124;19.190;2022-10-13T03:20:39;4.70;99.90
46041;DHT22;31779;49.124;19.190;2022-10-13T03:23:06;4.50;99.90
46041;DHT22;31779;49.124;19.190;2022-10-13T03:25:34;4.60;99.90
46041;DHT22;31779;49.124;19.190;2022-10-13T03:28:03;4.60;99.90
46041;DHT22;31779;49.124;19.190;2022-10-13T03:30:31;4.70;99.90
46041;DHT22;31779;49.124;19.190;2022-10-13T03:32:59;4.70;99.90
46041;DHT22;31779;49.124;19.190;2022-10-13T03:35:28;4.80;99.90
46041;DHT22;31779;49.124;19.190;2022-10-13T03:37:55;4.70;99.90
46041;DHT22;31779;49.124;19.190;2022-10-13T03:40:24;4.80;99.90
46041;DHT22;31779;49.124;19.190;2022-10-13T03:42:51;4.80;99.90
46041;DHT22;31779;49.124;19.190;2022-10-13T03:45:19;4.90;99.90
46041;DHT22;31779;49.124;19.190;2022-10-13T03:47:47;5.00;99.90
46041;DHT22;31779;49.124;19.190;2022-10-13T03:50:14;5.00;99.90
46041;DHT22;31779;49.124;19.190;2022-10-13T03:52:43;5.10;99.90
46041;DHT22;31779;49.124;19.190;2022-10-13T03:55:10;5.10;99.90
46041;DHT22;31779;49.124;19.190;2022-10-13T03:57:38;5.10;99.90
46041;DHT22;31779;49.124;19.190;2022-10-13T04:00:06;5.10;99.90
46041;DHT22;31779;49.124;19.190;2022-10-13T04:02:38;5.10;99.90
46041;DHT22;31779;49.124;19.190;2022-10-13T04:05:06;5.10;99.90
46041;DHT22;31779;49.124;19.190;2022-10-13T04:07:34;5.20;99.90
46041;DHT22;31779;49.124;19.190;2022-10-13T04:10:09;5.10;99.90
46041;DHT22;31779;49.124;19.190;2022-10-13T04:12:39;5.10;99.90
46041;DHT22;31779;49.124;19.190;2022-10-13T04:15:08;5.10;99.90
46041;DHT22;31779;49.124;19.190;2022-10-13T04:17:36;5.10;99.90
46041;DHT22;31779;49.124;19.190;2022-10-13T04:20:04;5.00;99.90
46041;DHT22;31779;49.124;19.190;2022-10-13T04:22:32;5.00;99.90
46041;DHT22;31779;49.124;19.190;2022-10-13T04:25:00;5.00;99.90
46041;DHT22;31779;49.124;19.190;2022-10-13T04:27:28;5.00;99.90
46041;DHT22;31779;49.124;19.190;2022-10-13T04:29:55;5.00;99.90
46041;DHT22;31779;49.124;19.190;2022-10-13T04:32:23;5.00;99.90
46041;DHT22;31779;49.124;19.190;2022-10-13T04:34:51;5.00;99.90
46041;DHT22;31779;49.124;19.190;2022-10-13T04:37:19;5.00;99.90
46041;DHT22;31779;49.124;19.190;2022-10-13T04:39:46;5.10;99.90
46041;DHT22;31779;49.124;19.190;2022-10-13T04:42:15;5.00;99.90
46041;DHT22;31779;49.124;19.190;2022-10-13T04:44:43;5.00;99.90
46041;DHT22;31779;49.124;19.190;2022-10-13T04:47:11;5.00;99.90
46041;DHT22;31779;49.124;19.190;2022-10-13T04:49:39;5.00;99.90
46041;DHT22;31779;49.124;19.190;2022-10-13T04:52:06;5.00;99.90
46041;DHT22;31779;49.124;19.190;2022-10-13T04:54:34;5.10;99.90
46041;DHT22;31779;49.124;19.190;2022-10-13T04:57:02;5.10;99.90
46041;DHT22;31779;49.124;19.190;2022-10-13T04:59:29;5.10;99.90
46041;DHT22;31779;49.124;19.190;2022-10-13T05:01:57;5.10;99.90
46041;DHT22;31779;49.124;19.190;2022-10-13T05:04:25;5.10;99.90
46041;DHT22;31779;49.124;19.190;2022-10-13T05:06:53;5.10;99.90
46041;DHT22;31779;49.124;19.190;2022-10-13T05:09:41;5.20;99.90
46041;DHT22;31779;49.124;19.190;2022-10-13T05:12:12;5.20;99.90
46041;DHT22;31779;49.124;19.190;2022-10-13T05:14:39;5.20;99.90
46041;DHT22;31779;49.124;19.190;2022-10-13T05:17:07;5.30;99.90
46041;DHT22;31779;49.124;19.190;2022-10-13T05:19:35;5.40;99.90
46041;DHT22;31779;49.124;19.190;2022-10-13T05:22:02;5.50;99.90
46041;DHT22;31779;49.124;19.190;2022-10-13T05:24:30;5.50;99.90
46041;DHT22;31779;49.124;19.190;2022-10-13T05:27:10;5.50;99.90
46041;DHT22;31779;49.124;19.190;2022-10-13T05:29:39;5.50;99.90
46041;DHT22;31779;49.124;19.190;2022-10-13T05:32:07;5.50;99.90
46041;DHT22;31779;49.124;19.190;2022-10-13T05:34:35;5.50;99.90
46041;DHT22;31779;49.124;19.190;2022-10-13T05:37:03;5.60;99.90
46041;DHT22;31779;49.124;19.190;2022-10-13T05:39:32;5.60;99.90
46041;DHT22;31779;49.124;19.190;2022-10-13T05:42:00;5.50;99.90
46041;DHT22;31779;49.124;19.190;2022-10-13T05:44:28;5.60;99.90
46041;DHT22;31779;49.124;19.190;2022-10-13T05:46:56;5.60;99.90
46041;DHT22;31779;49.124;19.190;2022-10-13T05:49:24;5.70;99.90
46041;DHT22;31779;49.124;19.190;2022-10-13T05:51:56;5.70;99.90
46041;DHT22;31779;49.124;19.190;2022-10-13T05:54:25;5.80;99.90
46041;DHT22;31779;49.124;19.190;2022-10-13T05:57:02;5.80;99.90
46041;DHT22;31779;49.124;19.190;2022-10-13T05:59:38;5.90;99.90
46041;DHT22;31779;49.124;19.190;2022-10-13T06:02:08;6.00;99.90
46041;DHT22;31779;49.124;19.190;2022-10-13T06:04:42;6.10;99.90
46041;DHT22;31779;49.124;19.190;2022-10-13T06:07:12;6.10;99.90
46041;DHT22;31779;49.124;19.190;2022-10-13T06:09:40;6.20;99.90
46041;DHT22;31779;49.124;19.190;2022-10-13T06:12:08;6.30;99.90
46041;DHT22;31779;49.124;19.190;2022-10-13T06:14:36;6.40;99.90
46041;DHT22;31779;49.124;19.190;2022-10-13T06:17:06;6.50;99.90
46041;DHT22;31779;49.124;19.190;2022-10-13T06:19:34;6.60;99.90
46041;DHT22;31779;49.124;19.190;2022-10-13T06:22:07;6.60;99.90
46041;DHT22;31779;49.124;19.190;2022-10-13T06:24:36;6.70;99.90
46041;DHT22;31779;49.124;19.190;2022-10-13T06:27:11;6.90;99.90
46041;DHT22;31779;49.124;19.190;2022-10-13T06:29:39;7.00;99.90
46041;DHT22;31779;49.124;19.190;2022-10-13T06:32:07;7.30;99.90
46041;DHT22;31779;49.124;19.190;2022-10-13T06:34:35;7.80;99.90
46041;DHT22;31779;49.124;19.190;2022-10-13T06:37:03;9.60;99.90
46041;DHT22;31779;49.124;19.190;2022-10-13T06:39:31;9.50;99.90
46041;DHT22;31779;49.124;19.190;2022-10-13T06:42:03;9.10;99.90
46041;DHT22;31779;49.124;19.190;2022-10-13T06:44:37;8.80;99.90
46041;DHT22;31779;49.124;19.190;2022-10-13T06:47:05;8.80;99.90
46041;DHT22;31779;49.124;19.190;2022-10-13T06:49:34;8.70;99.90
46041;DHT22;31779;49.124;19.190;2022-10-13T06:52:03;8.80;99.90
46041;DHT22;31779;49.124;19.190;2022-10-13T06:54:31;8.90;99.90
46041;DHT22;31779;49.124;19.190;2022-10-13T06:56:59;8.90;99.90
46041;DHT22;31779;49.124;19.190;2022-10-13T06:59:28;9.00;99.90
46041;DHT22;31779;49.124;19.190;2022-10-13T07:01:56;9.00;99.90
46041;DHT22;31779;49.124;19.190;2022-10-13T07:04:24;9.00;99.90
46041;DHT22;31779;49.124;19.190;2022-10-13T07:06:57;9.10;99.90
46041;DHT22;31779;49.124;19.190;2022-10-13T07:09:25;9.30;99.90
46041;DHT22;31779;49.124;19.190;2022-10-13T07:11:56;9.20;99.90
46041;DHT22;31779;49.124;19.190;2022-10-13T07:14:25;9.40;99.90
46041;DHT22;31779;49.124;19.190;2022-10-13T07:16:53;9.40;99.90
46041;DHT22;31779;49.124;19.190;2022-10-13T07:19:21;9.60;99.90
46041;DHT22;31779;49.124;19.190;2022-10-13T07:21:49;9.60;99.90
46041;DHT22;31779;49.124;19.190;2022-10-13T07:24:17;9.50;99.90
46041;DHT22;31779;49.124;19.190;2022-10-13T07:26:45;9.50;99.90
46041;DHT22;31779;49.124;19.190;2022-10-13T07:29:15;9.60;99.90
46041;DHT22;31779;49.124;19.190;2022-10-13T07:31:44;9.70;99.90
46041;DHT22;31779;49.124;19.190;2022-10-13T07:34:14;9.60;99.90
46041;DHT22;31779;49.124;19.190;2022-10-13T07:36:42;9.70;99.90
46041;DHT22;31779;49.124;19.190;2022-10-13T07:39:10;9.90;99.90
46041;DHT22;31779;49.124;19.190;2022-10-13T07:41:38;9.70;99.90
46041;DHT22;31779;49.124;19.190;2022-10-13T07:44:06;10.00;99.90
46041;DHT22;31779;49.124;19.190;2022-10-13T07:46:34;10.00;99.90
46041;DHT22;31779;49.124;19.190;2022-10-13T07:49:02;10.10;99.90
46041;DHT22;31779;49.124;19.190;2022-10-13T07:51:30;10.30;99.90
46041;DHT22;31779;49.124;19.190;2022-10-13T07:53:58;10.50;99.90
46041;DHT22;31779;49.124;19.190;2022-10-13T07:56:27;10.50;99.90
46041;DHT22;31779;49.124;19.190;2022-10-13T07:58:55;10.60;99.90
46041;DHT22;31779;49.124;19.190;2022-10-13T08:01:24;10.90;99.90
46041;DHT22;31779;49.124;19.190;2022-10-13T08:03:54;11.00;99.90
46041;DHT22;31779;49.124;19.190;2022-10-13T08:06:23;11.20;99.90
46041;DHT22;31779;49.124;19.190;2022-10-13T08:08:57;11.40;99.90
46041;DHT22;31779;49.124;19.190;2022-10-13T08:11:27;11.60;99.90
46041;DHT22;31779;49.124;19.190;2022-10-13T08:13:55;11.80;99.90
46041;DHT22;31779;49.124;19.190;2022-10-13T08:16:27;12.00;99.90
46041;DHT22;31779;49.124;19.190;2022-10-13T08:18:57;11.90;99.90
46041;DHT22;31779;49.124;19.190;2022-10-13T08:21:26;11.00;99.90
46041;DHT22;31779;49.124;19.190;2022-10-13T08:24:15;10.90;99.90
46041;DHT22;31779;49.124;19.190;2022-10-13T08:26:45;11.80;99.90
46041;DHT22;31779;49.124;19.190;2022-10-13T08:29:14;12.20;99.90
46041;DHT22;31779;49.124;19.190;2022-10-13T08:31:50;12.70;99.90
46041;DHT22;31779;49.124;19.190;2022-10-13T08:34:23;13.30;99.90
46041;DHT22;31779;49.124;19.190;2022-10-13T08:36:52;13.20;99.90
46041;DHT22;31779;49.124;19.190;2022-10-13T08:39:24;13.10;99.90
46041;DHT22;31779;49.124;19.190;2022-10-13T08:41:53;14.20;99.90
46041;DHT22;31779;49.124;19.190;2022-10-13T08:44:35;14.90;97.90
46041;DHT22;31779;49.124;19.190;2022-10-13T08:47:46;17.00;96.40
46041;DHT22;31779;49.124;19.190;2022-10-13T08:50:21;20.80;79.00
46041;DHT22;31779;49.124;19.190;2022-10-13T08:52:58;21.10;72.20
46041;DHT22;31779;49.124;19.190;2022-10-13T08:58:05;19.80;72.50
46041;DHT22;31779;49.124;19.190;2022-10-13T09:00:36;20.10;70.50
46041;DHT22;31779;49.124;19.190;2022-10-13T09:03:21;18.00;74.00
46041;DHT22;31779;49.124;19.190;2022-10-13T09:08:53;17.10;77.60
46041;DHT22;31779;49.124;19.190;2022-10-13T09:11:47;16.70;79.10
46041;DHT22;31779;49.124;19.190;2022-10-13T09:16:47;16.20;78.90
46041;DHT22;31779;49.124;19.190;2022-10-13T09:19:29;15.80;81.80
46041;DHT22;31779;49.124;19.190;2022-10-13T09:24:41;15.00;80.90
46041;DHT22;31779;49.124;19.190;2022-10-13T09:27:18;15.10;86.00
46041;DHT22;31779;49.124;19.190;2022-10-13T09:29:46;15.30;87.00
46041;DHT22;31779;49.124;19.190;2022-10-13T09:32:21;15.10;83.80
46041;DHT22;31779;49.124;19.190;2022-10-13T09:34:52;17.00;87.90
46041;DHT22;31779;49.124;19.190;2022-10-13T09:37:24;21.40;77.00
46041;DHT22;31779;49.124;19.190;2022-10-13T09:40:11;23.20;61.20
46041;DHT22;31779;49.124;19.190;2022-10-13T09:42:39;24.40;65.30
46041;DHT22;31779;49.124;19.190;2022-10-13T09:45:16;25.80;56.10
46041;DHT22;31779;49.124;19.190;2022-10-13T09:48:03;29.10;53.80
46041;DHT22;31779;49.124;19.190;2022-10-13T09:50:33;26.70;51.20
46041;DHT22;31779;49.124;19.190;2022-10-13T09:55:47;27.50;47.30
46041;DHT22;31779;49.124;19.190;2022-10-13T09:58:27;27.70;48.70
46041;DHT22;31779;49.124;19.190;2022-10-13T10:00:56;26.00;47.60
46041;DHT22;31779;49.124;19.190;2022-10-13T10:03:33;24.60;49.50
46041;DHT22;31779;49.124;19.190;2022-10-13T10:06:05;22.90;51.50
46041;DHT22;31779;49.124;19.190;2022-10-13T10:08:43;23.20;52.60
46041;DHT22;31779;49.124;19.190;2022-10-13T10:11:34;24.80;53.20
46041;DHT22;31779;49.124;19.190;2022-10-13T10:14:31;25.30;51.40
46041;DHT22;31779;49.124;19.190;2022-10-13T10:25:42;22.90;52.90
46041;DHT22;31779;49.124;19.190;2022-10-13T10:31:15;22.50;54.20
46041;DHT22;31779;49.124;19.190;2022-10-13T10:34:12;22.80;51.00
46041;DHT22;31779;49.124;19.190;2022-10-13T10:45:02;20.40;59.90
46041;DHT22;31779;49.124;19.190;2022-10-13T10:47:41;19.90;59.70
46041;DHT22;31779;49.124;19.190;2022-10-13T10:50:14;21.60;62.70
46041;DHT22;31779;49.124;19.190;2022-10-13T10:52:59;23.60;52.30
46041;DHT22;31779;49.124;19.190;2022-10-13T11:04:42;20.70;58.10
46041;DHT22;31779;49.124;19.190;2022-10-13T11:12:23;19.40;64.30
46041;DHT22;31779;49.124;19.190;2022-10-13T11:15:55;19.30;61.70
46041;DHT22;31779;49.124;19.190;2022-10-13T11:17:52;18.80;62.60
46041;DHT22;31779;49.124;19.190;2022-10-13T11:25:37;17.60;66.70
46041;DHT22;31779;49.124;19.190;2022-10-13T11:30:52;17.60;66.80
46041;DHT22;31779;49.124;19.190;2022-10-13T11:36:31;17.30;69.50
46041;DHT22;31779;49.124;19.190;2022-10-13T11:53:33;15.70;79.60
46041;DHT22;31779;49.124;19.190;2022-10-13T11:56:19;15.40;85.00
46041;DHT22;31779;49.124;19.190;2022-10-13T11:58:47;15.70;79.40
46041;DHT22;31779;49.124;19.190;2022-10-13T12:01:15;15.50;86.40
46041;DHT22;31779;49.124;19.190;2022-10-13T12:03:45;15.60;88.20
46041;DHT22;31779;49.124;19.190;2022-10-13T12:06:30;15.60;83.20
46041;DHT22;31779;49.124;19.190;2022-10-13T12:09:15;15.40;84.60
46041;DHT22;31779;49.124;19.190;2022-10-13T12:11:44;15.50;83.60
46041;DHT22;31779;49.124;19.190;2022-10-13T12:14:28;15.10;90.50
46041;DHT22;31779;49.124;19.190;2022-10-13T12:16:59;14.90;90.50
46041;DHT22;31779;49.124;19.190;2022-10-13T12:19:30;15.00;92.20
46041;DHT22;31779;49.124;19.190;2022-10-13T12:22:10;15.10;94.60
46041;DHT22;31779;49.124;19.190;2022-10-13T12:24:56;15.30;93.80
46041;DHT22;31779;49.124;19.190;2022-10-13T12:27:30;15.30;92.60
46041;DHT22;31779;49.124;19.190;2022-10-13T12:30:01;15.40;92.20
46041;DHT22;31779;49.124;19.190;2022-10-13T12:32:32;15.30;95.60
46041;DHT22;31779;49.124;19.190;2022-10-13T12:35:32;15.60;94.30
46041;DHT22;31779;49.124;19.190;2022-10-13T12:38:05;15.60;95.30
46041;DHT22;31779;49.124;19.190;2022-10-13T12:40:35;15.60;96.60
46041;DHT22;31779;49.124;19.190;2022-10-13T12:43:06;15.40;95.30
46041;DHT22;31779;49.124;19.190;2022-10-13T12:45:38;15.30;95.30
46041;DHT22;31779;49.124;19.190;2022-10-13T12:51:17;15.30;98.20
46041;DHT22;31779;49.124;19.190;2022-10-13T12:53:47;15.50;96.70
46041;DHT22;31779;49.124;19.190;2022-10-13T12:56:26;15.50;98.70
46041;DHT22;31779;49.124;19.190;2022-10-13T12:58:55;15.70;98.10
46041;DHT22;31779;49.124;19.190;2022-10-13T13:01:35;15.80;98.40
46041;DHT22;31779;49.124;19.190;2022-10-13T13:06:58;16.50;96.50
46041;DHT22;31779;49.124;19.190;2022-10-13T13:09:36;16.80;96.10
46041;DHT22;31779;49.124;19.190;2022-10-13T13:14:44;17.30;94.90
46041;DHT22;31779;49.124;19.190;2022-10-13T13:20:27;20.50;92.90
46041;DHT22;31779;49.124;19.190;2022-10-13T13:22:56;21.00;84.00
46041;DHT22;31779;49.124;19.190;2022-10-13T13:25:24;21.00;83.00
46041;DHT22;31779;49.124;19.190;2022-10-13T13:27:53;22.00;79.30
46041;DHT22;31779;49.124;19.190;2022-10-13T13:30:22;22.90;76.70
46041;DHT22;31779;49.124;19.190;2022-10-13T13:32:50;24.20;70.20
46041;DHT22;31779;49.124;19.190;2022-10-13T13:35:19;24.00;68.10
46041;DHT22;31779;49.124;19.190;2022-10-13T13:37:48;24.90;65.10
46041;DHT22;31779;49.124;19.190;2022-10-13T13:40:22;25.30;62.10
46041;DHT22;31779;49.124;19.190;2022-10-13T13:42:51;24.60;64.00
46041;DHT22;31779;49.124;19.190;2022-10-13T13:45:22;24.80;62.60
46041;DHT22;31779;49.124;19.190;2022-10-13T13:47:53;23.70;64.90
46041;DHT22;31779;49.124;19.190;2022-10-13T13:50:32;20.80;75.80
46041;DHT22;31779;49.124;19.190;2022-10-13T13:53:00;19.40;80.80
46041;DHT22;31779;49.124;19.190;2022-10-13T13:55:28;18.10;87.10
46041;DHT22;31779;49.124;19.190;2022-10-13T13:57:57;18.30;89.90
46041;DHT22;31779;49.124;19.190;2022-10-13T14:00:25;17.90;91.80
46041;DHT22;31779;49.124;19.190;2022-10-13T14:02:57;17.30;93.90
46041;DHT22;31779;49.124;19.190;2022-10-13T14:05:25;17.40;93.50
46041;DHT22;31779;49.124;19.190;2022-10-13T14:07:54;17.30;94.60
46041;DHT22;31779;49.124;19.190;2022-10-13T14:10:28;16.70;95.30
46041;DHT22;31779;49.124;19.190;2022-10-13T14:12:56;16.40;96.80
46041;DHT22;31779;49.124;19.190;2022-10-13T14:15:24;16.50;98.00
46041;DHT22;31779;49.124;19.190;2022-10-13T14:17:56;15.80;99.70
46041;DHT22;31779;49.124;19.190;2022-10-13T14:20:24;15.20;99.90
46041;DHT22;31779;49.124;19.190;2022-10-13T14:22:53;15.30;99.90
46041;DHT22;31779;49.124;19.190;2022-10-13T14:25:21;15.20;99.90
46041;DHT22;31779;49.124;19.190;2022-10-13T14:27:50;15.60;99.90
46041;DHT22;31779;49.124;19.190;2022-10-13T14:30:18;15.20;99.90
46041;DHT22;31779;49.124;19.190;2022-10-13T14:32:46;15.20;99.90
46041;DHT22;31779;49.124;19.190;2022-10-13T14:35:17;15.00;99.90
46041;DHT22;31779;49.124;19.190;2022-10-13T14:37:45;14.70;99.90
46041;DHT22;31779;49.124;19.190;2022-10-13T14:40:14;14.50;99.90
46041;DHT22;31779;49.124;19.190;2022-10-13T14:42:45;14.30;99.90
46041;DHT22;31779;49.124;19.190;2022-10-13T14:45:15;14.30;99.90
46041;DHT22;31779;49.124;19.190;2022-10-13T14:47:43;14.00;99.90
46041;DHT22;31779;49.124;19.190;2022-10-13T14:50:11;14.00;99.90
46041;DHT22;31779;49.124;19.190;2022-10-13T14:52:39;13.90;99.90
46041;DHT22;31779;49.124;19.190;2022-10-13T14:55:10;14.00;99.90
46041;DHT22;31779;49.124;19.190;2022-10-13T14:57:40;13.70;99.90
46041;DHT22;31779;49.124;19.190;2022-10-13T15:00:08;13.60;99.90
46041;DHT22;31779;49.124;19.190;2022-10-13T15:02:37;13.20;99.90
46041;DHT22;31779;49.124;19.190;2022-10-13T15:05:06;13.10;99.90
46041;DHT22;31779;49.124;19.190;2022-10-13T15:07:34;12.90;99.90
46041;DHT22;31779;49.124;19.190;2022-10-13T15:10:11;12.70;99.90
46041;DHT22;31779;49.124;19.190;2022-10-13T15:12:39;12.60;99.90
46041;DHT22;31779;49.124;19.190;2022-10-13T15:15:08;12.40;99.90
46041;DHT22;31779;49.124;19.190;2022-10-13T15:17:36;12.40;99.90
46041;DHT22;31779;49.124;19.190;2022-10-13T15:20:05;12.30;99.90
46041;DHT22;31779;49.124;19.190;2022-10-13T15:22:33;12.20;99.90
46041;DHT22;31779;49.124;19.190;2022-10-13T15:25:01;12.00;99.90
46041;DHT22;31779;49.124;19.190;2022-10-13T15:27:35;11.80;99.90
46041;DHT22;31779;49.124;19.190;2022-10-13T15:30:09;11.80;99.90
46041;DHT22;31779;49.124;19.190;2022-10-13T15:32:37;11.70;99.90
46041;DHT22;31779;49.124;19.190;2022-10-13T15:35:06;11.50;99.90
46041;DHT22;31779;49.124;19.190;2022-10-13T15:37:35;11.40;99.90
46041;DHT22;31779;49.124;19.190;2022-10-13T15:40:04;11.20;99.90
46041;DHT22;31779;49.124;19.190;2022-10-13T15:42:32;11.10;99.90
46041;DHT22;31779;49.124;19.190;2022-10-13T15:45:00;10.90;99.90
46041;DHT22;31779;49.124;19.190;2022-10-13T15:47:37;10.80;99.90
46041;DHT22;31779;49.124;19.190;2022-10-13T15:50:05;10.70;99.90
46041;DHT22;31779;49.124;19.190;2022-10-13T15:52:40;10.70;99.90
46041;DHT22;31779;49.124;19.190;2022-10-13T15:55:09;10.60;99.90
46041;DHT22;31779;49.124;19.190;2022-10-13T15:57:38;10.50;99.90
46041;DHT22;31779;49.124;19.190;2022-10-13T16:00:06;10.40;99.90
46041;DHT22;31779;49.124;19.190;2022-10-13T16:02:42;10.30;99.90
46041;DHT22;31779;49.124;19.190;2022-10-13T16:05:11;10.20;99.90
46041;DHT22;31779;49.124;19.190;2022-10-13T16:07:40;10.20;99.90
46041;DHT22;31779;49.124;19.190;2022-10-13T16:10:09;10.10;99.90
46041;DHT22;31779;49.124;19.190;2022-10-13T16:12:38;10.00;99.90
46041;DHT22;31779;49.124;19.190;2022-10-13T16:15:09;9.90;99.90
46041;DHT22;31779;49.124;19.190;2022-10-13T16:17:37;9.90;99.90
46041;DHT22;31779;49.124;19.190;2022-10-13T16:20:06;9.80;99.90
46041;DHT22;31779;49.124;19.190;2022-10-13T16:22:34;9.80;99.90
46041;DHT22;31779;49.124;19.190;2022-10-13T16:25:04;9.70;99.90
46041;DHT22;31779;49.124;19.190;2022-10-13T16:27:32;9.40;99.90
46041;DHT22;31779;49.124;19.190;2022-10-13T16:30:00;9.50;99.90
46041;DHT22;31779;49.124;19.190;2022-10-13T16:32:28;9.40;99.90
46041;DHT22;31779;49.124;19.190;2022-10-13T16:34:58;9.30;99.90
46041;DHT22;31779;49.124;19.190;2022-10-13T16:37:26;9.30;99.90
46041;DHT22;31779;49.124;19.190;2022-10-13T16:39:54;9.20;99.90
46041;DHT22;31779;49.124;19.190;2022-10-13T16:42:21;9.10;99.90
46041;DHT22;31779;49.124;19.190;2022-10-13T16:44:50;9.10;99.90
46041;DHT22;31779;49.124;19.190;2022-10-13T16:47:18;9.00;99.90
46041;DHT22;31779;49.124;19.190;2022-10-13T16:49:46;8.90;99.90
46041;DHT22;31779;49.124;19.190;2022-10-13T16:52:15;8.90;99.90
46041;DHT22;31779;49.124;19.190;2022-10-13T16:54:45;8.90;99.90
46041;DHT22;31779;49.124;19.190;2022-10-13T16:57:13;8.90;99.90
46041;DHT22;31779;49.124;19.190;2022-10-13T16:59:41;8.90;99.90
46041;DHT22;31779;49.124;19.190;2022-10-13T17:02:12;8.90;99.90
46041;DHT22;31779;49.124;19.190;2022-10-13T17:04:42;8.80;99.90
46041;DHT22;31779;49.124;19.190;2022-10-13T17:07:10;8.70;99.90
46041;DHT22;31779;49.124;19.190;2022-10-13T17:09:38;8.70;99.90
46041;DHT22;31779;49.124;19.190;2022-10-13T17:12:06;8.70;99.90
46041;DHT22;31779;49.124;19.190;2022-10-13T17:14:33;8.70;99.90
46041;DHT22;31779;49.124;19.190;2022-10-13T17:17:02;8.60;99.90
46041;DHT22;31779;49.124;19.190;2022-10-13T17:19:30;8.60;99.90
46041;DHT22;31779;49.124;19.190;2022-10-13T17:21:57;8.50;99.90
46041;DHT22;31779;49.124;19.190;2022-10-13T17:24:25;8.50;99.90
46041;DHT22;31779;49.124;19.190;2022-10-13T17:26:53;8.50;99.90
46041;DHT22;31779;49.124;19.190;2022-10-13T17:29:21;8.40;99.90
46041;DHT22;31779;49.124;19.190;2022-10-13T17:31:52;8.30;99.90
46041;DHT22;31779;49.124;19.190;2022-10-13T17:34:21;8.30;99.90
46041;DHT22;31779;49.124;19.190;2022-10-13T17:36:50;8.30;99.90
46041;DHT22;31779;49.124;19.190;2022-10-13T17:39:18;8.30;99.90
46041;DHT22;31779;49.124;19.190;2022-10-13T17:41:46;8.40;99.90
46041;DHT22;31779;49.124;19.190;2022-10-13T17:44:15;8.30;99.90